Time;durP1;ratioP1;P1;durP2;ratioP2;P2;SDS_P1;SDS_P2;PMS_P1;PMS_P2;Temp;Humidity;BMP_temperature;BMP_pressure;BME280_temperature;BME280_humidity;BME280_pressure;Samples;Min_cycle;Max_cycle;Signal;HPM_P1;HPM_P2
2022/12/15 00:39:04;;;;;;;23.20;12.77;;;-2.20;99.90;;;;;;5013197;28;20461;-68
2022/12/15 00:41:29;;;;;;;27.23;12.30;;;-2.20;99.90;;;;;;5013063;28;20422;-68
2022/12/15 00:43:55;;;;;;;30.00;12.83;;;-2.20;99.90;;;;;;5009736;28;20191;-68
2022/12/15 00:50:50;;;;;;;25.17;13.90;;;-2.20;99.90;;;;;;4999982;28;20657;-69
2022/12/15 01:21:56;;;;;;;26.00;12.37;;;-2.20;99.90;;;;;;5009722;28;20775;-68
2022/12/15 01:24:22;;;;;;;28.10;12.00;;;-2.20;99.90;;;;;;5002480;28;20457;-68
2022/12/15 01:26:48;;;;;;;28.00;12.33;;;-2.20;99.90;;;;;;5012611;28;20203;-68
2022/12/15 01:29:13;;;;;;;32.13;14.73;;;-2.20;99.90;;;;;;5005365;28;20191;-68
2022/12/15 01:31:39;;;;;;;4.83;1.13;;;-2.20;99.90;;;;;;5007194;28;20193;-68
2022/12/15 01:34:04;;;;;;;31.43;13.30;;;-2.30;99.90;;;;;;5004023;28;20187;-68
2022/12/15 01:36:30;;;;;;;33.80;12.83;;;-2.30;99.90;;;;;;5012241;28;20270;-68
2022/12/15 01:38:55;;;;;;;26.20;12.80;;;-2.20;99.90;;;;;;5012047;28;20203;-68
2022/12/15 01:41:21;;;;;;;31.43;14.40;;;-2.20;99.90;;;;;;5012187;28;20198;-68
2022/12/15 01:43:47;;;;;;;1.33;0.70;;;-2.20;99.90;;;;;;5005934;28;20216;-68
2022/12/15 01:46:14;;;;;;;27.80;12.87;;;-2.10;99.90;;;;;;4995667;28;20433;-68
2022/12/15 01:48:50;;;;;;;24.03;13.13;;;-2.10;99.90;;;;;;4994339;28;20328;-68
2022/12/15 01:51:19;;;;;;;27.07;12.97;;;-2.10;99.90;;;;;;5012203;28;20436;-68
2022/12/15 01:53:52;;;;;;;22.37;12.80;;;-2.10;99.90;;;;;;5007561;28;20433;-68
2022/12/15 01:56:18;;;;;;;31.10;13.00;;;-2.10;99.90;;;;;;5003874;28;21076;-68
2022/12/15 01:58:48;;;;;;;30.33;14.30;;;-2.10;99.90;;;;;;4992938;28;20969;-68
2022/12/15 02:01:13;;;;;;;2.03;1.03;;;-2.10;99.90;;;;;;5010924;28;20433;-68
2022/12/15 02:03:41;;;;;;;29.50;13.60;;;-2.10;99.90;;;;;;5011040;28;20425;-69
2022/12/15 02:06:09;;;;;;;1.97;1.27;;;-2.10;99.90;;;;;;5011763;28;20293;-68
2022/12/15 02:08:35;;;;;;;26.90;13.40;;;-2.10;99.90;;;;;;5010946;28;20413;-68
2022/12/15 02:11:07;;;;;;;2.40;1.13;;;-2.10;99.90;;;;;;5011842;28;20430;-68
2022/12/15 02:13:35;;;;;;;1.20;0.63;;;-2.10;99.90;;;;;;5000193;28;20413;-68
2022/12/15 02:16:15;;;;;;;25.10;12.83;;;-2.10;99.90;;;;;;5003774;28;20468;-68
2022/12/15 02:18:58;;;;;;;2.80;1.03;;;-2.10;99.90;;;;;;5012252;28;20409;-68
2022/12/15 02:21:35;;;;;;;27.87;13.03;;;-2.10;99.90;;;;;;4999392;28;20543;-68
2022/12/15 02:24:19;;;;;;;2.27;0.70;;;-2.00;99.90;;;;;;4994707;28;20425;-68
2022/12/15 02:27:11;;;;;;;39.10;14.47;;;-2.10;99.90;;;;;;5011373;28;20910;-68
2022/12/15 02:29:51;;;;;;;3.63;2.53;;;-2.10;99.90;;;;;;5011388;28;20433;-68
2022/12/15 02:32:30;;;;;;;30.10;13.80;;;-2.10;99.90;;;;;;5010550;28;20417;-68
2022/12/15 02:35:06;;;;;;;26.50;13.40;;;-2.20;99.90;;;;;;5011858;28;20448;-68
2022/12/15 02:37:35;;;;;;;28.40;13.57;;;-2.10;99.90;;;;;;5011580;28;20981;-68
2022/12/15 02:40:02;;;;;;;28.97;13.23;;;-2.10;99.90;;;;;;5011414;28;20422;-68
2022/12/15 02:42:31;;;;;;;36.50;14.60;;;-2.10;99.90;;;;;;5011622;28;21479;-68
2022/12/15 02:45:02;;;;;;;26.97;12.20;;;-2.10;99.90;;;;;;5004608;28;20469;-68
2022/12/15 02:47:46;;;;;;;23.67;12.60;;;-2.10;99.90;;;;;;5004148;28;20484;-68
2022/12/15 02:50:32;;;;;;;27.23;14.23;;;-2.10;99.90;;;;;;5000016;28;20419;-68
2022/12/15 02:53:12;;;;;;;41.40;13.60;;;-2.10;99.90;;;;;;4988633;28;20413;-68
2022/12/15 02:56:03;;;;;;;28.13;14.60;;;-2.10;99.90;;;;;;5010934;28;20418;-68
2022/12/15 02:58:53;;;;;;;1.73;0.97;;;-2.10;99.90;;;;;;4995341;28;20414;-68
2022/12/15 03:01:27;;;;;;;27.53;12.70;;;-2.20;99.90;;;;;;4986441;28;20887;-68
2022/12/15 03:03:55;;;;;;;28.27;13.37;;;-2.10;99.90;;;;;;5011601;28;20453;-68
2022/12/15 03:06:24;;;;;;;2.70;2.20;;;-2.10;99.90;;;;;;5011778;28;20493;-68
2022/12/15 03:08:49;;;;;;;33.90;12.90;;;-2.00;99.90;;;;;;4997998;28;20682;-68
2022/12/15 03:11:15;;;;;;;26.97;13.60;;;-2.00;99.90;;;;;;5006923;28;20422;-68
2022/12/15 03:13:40;;;;;;;1.87;0.93;;;-2.00;99.90;;;;;;5003788;28;20315;-68
2022/12/15 03:16:06;;;;;;;37.70;16.07;;;-2.00;99.90;;;;;;5002494;28;20242;-68
2022/12/15 03:18:32;;;;;;;33.13;15.80;;;-2.00;99.90;;;;;;5007387;28;20244;-68
2022/12/15 03:20:57;;;;;;;1.10;0.50;;;-2.00;99.90;;;;;;5009427;28;20178;-68
2022/12/15 03:23:23;;;;;;;33.83;15.60;;;-2.10;99.90;;;;;;4993968;28;20216;-68
2022/12/15 03:25:49;;;;;;;23.90;12.50;;;-2.10;99.90;;;;;;5011584;28;20211;-68
2022/12/15 03:28:15;;;;;;;42.13;15.37;;;-2.10;99.90;;;;;;5011512;28;20278;-68
2022/12/15 03:30:40;;;;;;;33.83;13.53;;;-2.10;99.90;;;;;;5010954;28;20883;-68
2022/12/15 03:33:07;;;;;;;1.40;0.70;;;-2.10;99.90;;;;;;5010453;28;20414;-68
2022/12/15 03:35:33;;;;;;;29.40;14.90;;;-2.10;99.90;;;;;;5011831;28;20658;-68
2022/12/15 03:37:58;;;;;;;32.23;14.03;;;-2.10;99.90;;;;;;5011391;28;20477;-68
2022/12/15 03:40:24;;;;;;;29.50;13.07;;;-2.10;99.90;;;;;;5011275;28;20183;-68
2022/12/15 03:42:49;;;;;;;22.60;13.03;;;-2.10;99.90;;;;;;5009074;28;20191;-68
2022/12/15 03:45:21;;;;;;;2.20;0.60;;;-2.10;99.90;;;;;;4999269;28;20289;-68
2022/12/15 03:47:47;;;;;;;31.07;13.33;;;-2.10;99.90;;;;;;5011409;28;20185;-68
2022/12/15 03:50:15;;;;;;;35.60;14.47;;;-2.10;99.90;;;;;;5011617;28;20418;-68
2022/12/15 03:52:41;;;;;;;2.50;0.87;;;-2.20;99.90;;;;;;4986932;28;21784;-68
2022/12/15 03:55:08;;;;;;;27.80;14.20;;;-2.20;99.90;;;;;;5000574;28;20468;-68
2022/12/15 03:57:34;;;;;;;32.53;14.63;;;-2.20;99.90;;;;;;4995918;28;20437;-72
2022/12/15 04:00:00;;;;;;;28.43;14.40;;;-2.10;99.90;;;;;;4999629;28;20411;-68
2022/12/15 04:02:25;;;;;;;25.93;12.63;;;-2.20;99.90;;;;;;4998332;28;20426;-68
2022/12/15 04:04:51;;;;;;;30.80;13.70;;;-2.20;99.90;;;;;;5011063;28;20710;-68
2022/12/15 04:07:17;;;;;;;34.40;12.27;;;-2.10;99.90;;;;;;5010727;28;20184;-68
2022/12/15 04:09:42;;;;;;;4.73;1.53;;;-2.20;99.90;;;;;;5001928;28;20188;-68
2022/12/15 04:12:10;;;;;;;28.93;13.70;;;-2.20;99.90;;;;;;5000248;28;20214;-69
2022/12/15 04:14:41;;;;;;;3.13;2.13;;;-2.10;99.90;;;;;;5007770;28;20190;-68
2022/12/15 04:17:07;;;;;;;34.63;13.40;;;-2.10;99.90;;;;;;4997987;28;20427;-67
2022/12/15 04:22:17;;;;;;;27.87;13.77;;;-2.10;99.90;;;;;;5009638;28;20838;-67
2022/12/15 05:33:10;;;;;;;43.83;16.70;;;-2.30;99.90;;;;;;5012214;28;20465;-67
2022/12/15 05:35:35;;;;;;;38.30;14.03;;;-2.30;99.90;;;;;;5004038;28;20439;-67
2022/12/15 05:38:01;;;;;;;33.80;15.07;;;-2.30;99.90;;;;;;5008974;28;20209;-67
2022/12/15 05:40:26;;;;;;;28.50;14.10;;;-2.30;99.90;;;;;;5012843;28;20252;-67
2022/12/15 05:42:52;;;;;;;46.87;19.07;;;-2.30;99.90;;;;;;5012461;28;20191;-67
2022/12/15 05:45:17;;;;;;;26.90;12.90;;;-2.30;99.90;;;;;;5003411;28;20213;-67
2022/12/15 05:47:43;;;;;;;1.67;1.03;;;-2.30;99.90;;;;;;5012885;28;20219;-67
2022/12/15 05:50:09;;;;;;;32.63;15.77;;;-2.40;99.90;;;;;;5012966;28;20179;-67
2022/12/15 05:52:35;;;;;;;43.17;18.50;;;-2.30;99.90;;;;;;5008755;28;20306;-67
2022/12/15 05:55:01;;;;;;;30.80;15.37;;;-2.20;99.90;;;;;;5012480;28;20508;-67
2022/12/15 05:57:26;;;;;;;42.27;15.60;;;-2.20;99.90;;;;;;4995226;28;20632;-67
2022/12/15 05:59:52;;;;;;;5.13;0.97;;;-2.20;99.90;;;;;;4995911;28;20198;-67
2022/12/15 06:02:18;;;;;;;30.70;14.80;;;-2.30;99.90;;;;;;5007094;28;20190;-67
2022/12/15 06:04:43;;;;;;;36.10;16.40;;;-2.30;99.90;;;;;;5012437;28;20671;-67
2022/12/15 06:07:09;;;;;;;36.20;16.63;;;-2.30;99.90;;;;;;5012825;28;20187;-67
2022/12/15 06:09:34;;;;;;;2.20;1.37;;;-2.40;99.90;;;;;;5009312;28;20684;-67
2022/12/15 06:12:00;;;;;;;35.70;16.97;;;-2.30;99.90;;;;;;5004002;28;20184;-67
2022/12/15 06:14:25;;;;;;;37.17;14.50;;;-2.30;99.90;;;;;;5009235;28;20186;-67
2022/12/15 06:16:51;;;;;;;30.93;14.97;;;-2.30;99.90;;;;;;5012651;28;20628;-67
2022/12/15 06:19:17;;;;;;;6.00;2.20;;;-2.30;99.90;;;;;;5012440;28;20275;-67
2022/12/15 06:21:42;;;;;;;38.07;16.00;;;-2.30;99.90;;;;;;5008955;28;20191;-67
2022/12/15 06:24:09;;;;;;;2.43;1.67;;;-2.30;99.90;;;;;;4993418;28;20488;-67
2022/12/15 06:26:37;;;;;;;34.20;15.67;;;-2.40;99.90;;;;;;5012147;28;20195;-67
2022/12/15 06:29:04;;;;;;;2.30;1.43;;;-2.40;99.90;;;;;;5006712;28;21076;-67
2022/12/15 06:31:31;;;;;;;29.13;14.90;;;-2.30;99.90;;;;;;5004745;28;20442;-67
2022/12/15 06:33:57;;;;;;;2.30;0.97;;;-2.30;99.90;;;;;;4998923;28;20426;-67
2022/12/15 06:36:23;;;;;;;42.07;16.87;;;-2.30;99.90;;;;;;5010701;28;20418;-67
2022/12/15 06:38:49;;;;;;;47.00;18.37;;;-2.30;99.90;;;;;;5010884;28;20512;-68
2022/12/15 06:41:17;;;;;;;1.10;0.50;;;-2.30;99.90;;;;;;4990987;28;20535;-67
2022/12/15 06:43:47;;;;;;;36.37;15.83;;;-2.30;99.90;;;;;;4993269;28;20454;-67
2022/12/15 06:46:13;;;;;;;37.63;16.57;;;-2.20;99.90;;;;;;5007026;28;21127;-67
2022/12/15 06:48:38;;;;;;;35.50;17.13;;;-2.20;99.90;;;;;;4986753;28;20440;-67
2022/12/15 06:51:06;;;;;;;31.97;16.30;;;-2.20;99.90;;;;;;5001355;28;20270;-67
2022/12/15 06:53:36;;;;;;;34.20;15.57;;;-2.20;99.90;;;;;;5000068;28;20277;-67
2022/12/15 06:56:04;;;;;;;34.80;15.77;;;-2.20;99.90;;;;;;5003879;28;21040;-67
2022/12/15 06:58:30;;;;;;;41.83;17.27;;;-2.30;99.90;;;;;;4998099;28;20481;-67
2022/12/15 07:00:56;;;;;;;39.90;18.33;;;-2.30;99.90;;;;;;5008587;28;20430;-67
2022/12/15 07:03:22;;;;;;;42.57;16.50;;;-2.30;99.90;;;;;;5010702;28;20191;-67
2022/12/15 07:05:47;;;;;;;3.50;1.27;;;-2.30;99.90;;;;;;4998326;28;20527;-67
2022/12/15 07:08:15;;;;;;;30.67;15.70;;;-2.30;99.90;;;;;;5011249;28;20217;-67
2022/12/15 07:10:42;;;;;;;35.87;17.17;;;-2.30;99.90;;;;;;4993483;28;20191;-67
2022/12/15 07:13:12;;;;;;;39.00;17.57;;;-2.30;99.90;;;;;;5010197;28;20552;-66
2022/12/15 07:15:38;;;;;;;41.13;18.27;;;-2.30;99.90;;;;;;5008459;28;20422;-66
2022/12/15 07:18:04;;;;;;;46.93;17.77;;;-2.30;99.90;;;;;;5010898;28;20426;-67
2022/12/15 07:20:30;;;;;;;46.73;16.70;;;-2.30;99.90;;;;;;5007742;28;20470;-66
2022/12/15 07:22:56;;;;;;;1.40;0.70;;;-2.30;99.90;;;;;;4996852;28;20446;-67
2022/12/15 07:25:21;;;;;;;35.37;17.37;;;-2.30;99.90;;;;;;5006100;28;20199;-66
2022/12/15 07:27:47;;;;;;;42.97;17.90;;;-2.30;99.90;;;;;;5011141;28;20309;-66
2022/12/15 07:30:14;;;;;;;2.50;1.27;;;-2.40;99.90;;;;;;5010505;28;20514;-66
2022/12/15 07:32:43;;;;;;;37.77;16.60;;;-2.30;99.90;;;;;;4998496;28;20191;-66
2022/12/15 07:35:09;;;;;;;43.93;16.93;;;-2.20;99.90;;;;;;5009022;28;20520;-66
2022/12/15 07:37:35;;;;;;;39.03;17.77;;;-2.20;99.90;;;;;;5002567;28;20470;-66
2022/12/15 07:40:02;;;;;;;33.03;14.97;;;-2.20;99.90;;;;;;5008968;28;20422;-66
2022/12/15 07:42:29;;;;;;;37.83;18.83;;;-2.20;99.90;;;;;;4998509;28;20430;-66
2022/12/15 07:44:54;;;;;;;34.23;17.57;;;-2.20;99.90;;;;;;4999718;28;20554;-66
2022/12/15 07:47:20;;;;;;;38.80;17.50;;;-2.20;99.90;;;;;;4985377;28;20427;-66
2022/12/15 07:49:46;;;;;;;37.33;16.07;;;-2.10;99.90;;;;;;5009451;28;20190;-66
2022/12/15 07:52:12;;;;;;;35.90;18.03;;;-2.10;99.90;;;;;;5007951;28;20326;-66
2022/12/15 07:54:38;;;;;;;37.50;17.03;;;-2.10;99.90;;;;;;5010870;28;20195;-66
2022/12/15 07:57:06;;;;;;;31.30;14.60;;;-2.00;99.90;;;;;;5001579;28;20445;-66
2022/12/15 07:59:35;;;;;;;52.20;16.97;;;-2.00;99.90;;;;;;4999929;28;20179;-66
2022/12/15 08:02:03;;;;;;;39.10;17.77;;;-2.00;99.90;;;;;;4997503;28;20427;-66
2022/12/15 08:04:31;;;;;;;43.90;18.10;;;-2.00;99.90;;;;;;5013249;28;20553;-66
2022/12/15 08:06:57;;;;;;;36.50;15.27;;;-1.90;99.90;;;;;;5014057;28;20962;-66
2022/12/15 08:09:24;;;;;;;38.67;15.43;;;-1.90;99.90;;;;;;5007968;28;20460;-66
2022/12/15 08:11:49;;;;;;;35.97;17.43;;;-1.90;99.90;;;;;;5000996;28;20456;-66
2022/12/15 08:14:16;;;;;;;37.97;16.17;;;-2.00;99.90;;;;;;5011073;28;20426;-66
2022/12/15 08:16:41;;;;;;;29.97;14.60;;;-2.00;99.90;;;;;;5013963;28;20621;-66
2022/12/15 08:19:10;;;;;;;2.50;1.90;;;-2.00;99.90;;;;;;5014123;28;20464;-66
2022/12/15 08:21:38;;;;;;;36.20;17.10;;;-2.00;99.90;;;;;;5011361;28;20195;-66
2022/12/15 08:24:04;;;;;;;45.40;17.67;;;-2.00;99.90;;;;;;4997911;28;21049;-66
2022/12/15 08:26:30;;;;;;;41.77;16.87;;;-1.90;99.90;;;;;;5013419;28;20429;-66
2022/12/15 08:28:56;;;;;;;1.77;0.93;;;-1.80;99.90;;;;;;5013480;28;20552;-66
2022/12/15 08:31:22;;;;;;;2.20;0.97;;;-1.80;99.90;;;;;;5012353;28;20257;-66
2022/12/15 08:33:49;;;;;;;2.27;1.10;;;-1.90;99.90;;;;;;5001587;28;20195;-66
2022/12/15 08:36:16;;;;;;;33.83;16.07;;;-1.80;99.90;;;;;;5013277;28;20426;-66
2022/12/15 08:38:44;;;;;;;34.57;15.87;;;-1.70;99.90;;;;;;5013321;28;20480;-66
2022/12/15 08:41:18;;;;;;;37.03;15.70;;;-1.60;99.90;;;;;;5012953;28;20445;-66
2022/12/15 08:43:45;;;;;;;32.17;15.10;;;-1.50;99.90;;;;;;5007656;28;20423;-66
2022/12/15 08:46:11;;;;;;;42.33;16.90;;;-1.50;99.90;;;;;;5009584;28;21054;-66
2022/12/15 08:48:37;;;;;;;1.97;0.97;;;-1.50;99.90;;;;;;5013183;28;20505;-66
2022/12/15 08:51:03;;;;;;;37.53;16.90;;;-1.50;99.90;;;;;;5012807;28;20416;-66
2022/12/15 08:53:28;;;;;;;33.77;15.90;;;-1.40;99.90;;;;;;5009085;28;20556;-66
2022/12/15 08:55:54;;;;;;;33.73;15.83;;;-1.50;99.90;;;;;;5012852;28;20270;-66
2022/12/15 08:58:20;;;;;;;42.30;18.73;;;-1.40;99.90;;;;;;5013537;28;20194;-66
2022/12/15 09:00:46;;;;;;;30.27;15.00;;;-1.30;99.90;;;;;;5012881;28;20185;-66
2022/12/15 09:03:11;;;;;;;35.53;17.70;;;-1.30;99.90;;;;;;5012948;28;20175;-66
2022/12/15 09:05:38;;;;;;;34.20;14.33;;;-1.20;99.90;;;;;;5011316;28;20941;-66
2022/12/15 09:08:04;;;;;;;43.20;17.60;;;-1.20;99.90;;;;;;5012938;28;20270;-66
2022/12/15 09:10:30;;;;;;;36.83;16.53;;;-1.30;99.90;;;;;;4999882;28;20441;-66
2022/12/15 09:12:55;;;;;;;3.77;2.83;;;-1.20;99.90;;;;;;5005786;28;20497;-66
2022/12/15 09:15:21;;;;;;;34.33;15.67;;;-1.10;99.90;;;;;;5009111;28;20191;-66
2022/12/15 09:17:47;;;;;;;34.20;15.50;;;-1.10;99.90;;;;;;5013120;28;20218;-66
2022/12/15 09:20:13;;;;;;;39.40;17.00;;;-1.10;99.90;;;;;;5009696;28;20647;-66
2022/12/15 09:22:40;;;;;;;38.67;16.20;;;-1.10;99.90;;;;;;5003421;28;20195;-66
2022/12/15 09:25:06;;;;;;;45.03;17.47;;;-1.20;99.90;;;;;;5003489;28;20466;-66
2022/12/15 09:27:33;;;;;;;39.47;14.93;;;-1.10;99.90;;;;;;5005956;28;20457;-66
2022/12/15 09:29:58;;;;;;;36.77;14.90;;;-1.10;99.90;;;;;;5007565;28;20418;-66
2022/12/15 09:32:24;;;;;;;34.10;15.53;;;-1.10;99.90;;;;;;4993481;28;20433;-71
2022/12/15 09:34:50;;;;;;;52.17;18.63;;;-0.90;99.90;;;;;;4983341;28;20539;-70
2022/12/15 09:37:17;;;;;;;33.03;16.00;;;-0.90;99.90;;;;;;4998533;28;20194;-70
2022/12/15 09:39:43;;;;;;;34.00;16.43;;;-0.90;99.90;;;;;;4994515;28;20970;-70
2022/12/15 09:42:29;;;;;;;36.03;15.90;;;-0.80;99.90;;;;;;4994202;28;20445;-66
2022/12/15 09:45:01;;;;;;;31.00;13.73;;;-0.70;99.90;;;;;;4989655;28;20210;-66
2022/12/15 09:47:52;;;;;;;34.77;14.53;;;-0.60;99.90;;;;;;5004232;28;20454;-66
2022/12/15 09:50:24;;;;;;;28.87;13.40;;;-0.70;99.90;;;;;;4993288;28;20430;-66
2022/12/15 09:52:57;;;;;;;36.17;15.40;;;-0.80;99.90;;;;;;5005944;28;20484;-66
2022/12/15 09:55:32;;;;;;;30.23;14.03;;;-0.70;99.90;;;;;;5010316;28;20418;-66
2022/12/15 09:58:25;;;;;;;36.57;15.80;;;-0.70;99.90;;;;;;4997206;28;21063;-66
2022/12/15 10:00:59;;;;;;;38.97;16.83;;;-0.80;99.90;;;;;;4985334;28;20434;-66
2022/12/15 10:03:34;;;;;;;36.37;13.80;;;-0.80;99.90;;;;;;5000580;28;20425;-66
2022/12/15 10:06:07;;;;;;;35.60;15.57;;;-0.80;99.90;;;;;;5010309;28;20461;-66
2022/12/15 10:08:47;;;;;;;37.93;14.27;;;-0.70;99.90;;;;;;5008059;28;20426;-69
2022/12/15 10:11:19;;;;;;;25.90;15.13;;;-0.60;99.90;;;;;;4995937;28;20417;-66
2022/12/15 10:14:07;;;;;;;31.73;13.33;;;-0.60;99.90;;;;;;5002204;28;20415;-66
2022/12/15 10:16:55;;;;;;;41.47;15.50;;;-0.60;99.90;;;;;;5009837;28;20437;-66
2022/12/15 10:19:33;;;;;;;31.90;16.10;;;-0.50;99.90;;;;;;5009344;28;20438;-66
2022/12/15 10:21:59;;;;;;;29.80;15.40;;;-0.50;99.90;;;;;;5006256;28;20891;-67
2022/12/15 10:24:29;;;;;;;42.63;16.53;;;-0.50;99.90;;;;;;4992624;28;20552;-67
2022/12/15 10:27:06;;;;;;;35.97;17.47;;;-0.40;99.90;;;;;;5009901;28;20466;-67
2022/12/15 10:30:00;;;;;;;34.30;15.57;;;-0.40;99.90;;;;;;5009803;28;20414;-67
2022/12/15 10:32:41;;;;;;;29.47;15.07;;;-0.40;99.90;;;;;;4987435;28;20427;-67
2022/12/15 10:35:14;;;;;;;34.70;15.20;;;-0.50;99.90;;;;;;5009967;28;20438;-67
2022/12/15 10:37:40;;;;;;;28.73;14.23;;;-0.40;99.90;;;;;;5007395;28;20474;-66
2022/12/15 10:40:06;;;;;;;2.50;1.27;;;-0.40;99.90;;;;;;5002447;28;21056;-67
2022/12/15 10:42:45;;;;;;;41.63;16.10;;;-0.40;99.90;;;;;;5001783;28;20456;-66
2022/12/15 10:45:37;;;;;;;4.20;2.93;;;-0.40;99.90;;;;;;4998340;28;20453;-66
2022/12/15 10:48:05;;;;;;;40.03;14.57;;;-0.30;99.90;;;;;;5009386;28;20418;-67
2022/12/15 10:50:32;;;;;;;29.90;14.83;;;-0.30;99.90;;;;;;5009876;28;20430;-67
2022/12/15 10:52:58;;;;;;;33.97;14.37;;;-0.30;99.90;;;;;;5005318;28;20430;-66
2022/12/15 10:55:40;;;;;;;29.23;13.10;;;-0.30;99.90;;;;;;5009132;28;20521;-66
2022/12/15 10:58:24;;;;;;;33.43;14.00;;;-0.30;99.90;;;;;;4993908;28;20275;-66
2022/12/15 11:01:13;;;;;;;35.87;14.90;;;-0.30;99.90;;;;;;5005460;28;20499;-66
2022/12/15 11:03:38;;;;;;;40.70;15.57;;;-0.30;99.90;;;;;;5008946;28;21207;-66
2022/12/15 11:06:15;;;;;;;36.63;14.97;;;-0.20;99.90;;;;;;4998272;28;20505;-67
2022/12/15 11:08:42;;;;;;;34.97;15.10;;;-0.30;99.90;;;;;;5008774;28;20176;-67
2022/12/15 11:14:24;;;;;;;31.87;14.13;;;-0.20;99.90;;;;;;4997647;28;20463;-66
2022/12/15 11:16:58;;;;;;;36.13;15.27;;;-0.20;99.90;;;;;;5010593;28;20455;-66
2022/12/15 11:19:36;;;;;;;26.10;14.03;;;-0.20;99.90;;;;;;5010504;28;20437;-66
2022/12/15 11:22:19;;;;;;;35.00;15.07;;;-0.30;99.90;;;;;;5004860;28;20471;-66
2022/12/15 11:25:11;;;;;;;49.33;14.70;;;-0.30;99.90;;;;;;4997352;28;20552;-66
2022/12/15 11:27:39;;;;;;;38.77;14.40;;;-0.30;99.90;;;;;;5010760;28;20450;-66
2022/12/15 11:30:23;;;;;;;29.77;14.13;;;-0.10;99.90;;;;;;5013721;28;20524;-66
2022/12/15 11:32:54;;;;;;;36.10;14.20;;;-0.20;99.90;;;;;;5013463;28;20730;-66
2022/12/15 11:35:38;;;;;;;30.03;14.57;;;-0.10;99.90;;;;;;5014475;28;20418;-66
2022/12/15 11:38:21;;;;;;;53.90;14.57;;;0.00;99.90;;;;;;5014584;28;20437;-66
2022/12/15 11:40:48;;;;;;;32.17;14.77;;;0.00;99.90;;;;;;5014050;28;20421;-66
2022/12/15 11:43:17;;;;;;;25.73;12.73;;;0.00;99.90;;;;;;5012857;28;20453;-66
2022/12/15 11:46:13;;;;;;;37.47;13.80;;;0.00;99.90;;;;;;5005346;28;20465;-66
2022/12/15 11:49:30;;;;;;;29.37;13.47;;;0.10;99.90;;;;;;4992391;28;20437;-66
2022/12/15 11:52:19;;;;;;;30.00;14.67;;;0.20;99.90;;;;;;4992116;28;20921;-66
2022/12/15 11:54:54;;;;;;;26.70;13.80;;;0.30;99.90;;;;;;4961962;28;20804;-66
2022/12/15 11:57:26;;;;;;;33.50;15.70;;;0.30;99.90;;;;;;5000833;28;20698;-66
2022/12/15 12:00:09;;;;;;;33.97;15.10;;;0.40;99.90;;;;;;5008611;28;20417;-67
2022/12/15 12:02:50;;;;;;;23.73;13.90;;;0.50;99.90;;;;;;5000880;28;20464;-66
2022/12/15 12:05:39;;;;;;;26.23;13.50;;;0.60;99.90;;;;;;5012847;28;20465;-66
2022/12/15 12:08:20;;;;;;;30.67;13.60;;;0.60;99.90;;;;;;4993673;28;20418;-67
2022/12/15 12:11:15;;;;;;;35.73;14.53;;;0.50;99.90;;;;;;4995512;28;21240;-66
2022/12/15 12:13:44;;;;;;;31.27;14.70;;;0.50;99.90;;;;;;5001996;28;20549;-66
2022/12/15 12:16:31;;;;;;;42.53;14.20;;;0.50;99.90;;;;;;5013136;28;20426;-66
2022/12/15 12:19:00;;;;;;;26.40;13.47;;;0.60;99.90;;;;;;5013955;28;20426;-66
2022/12/15 12:21:30;;;;;;;36.77;16.50;;;0.60;99.90;;;;;;5011126;28;20422;-66
2022/12/15 12:24:10;;;;;;;27.57;13.97;;;0.70;99.90;;;;;;4993969;28;20520;-66
2022/12/15 12:26:58;;;;;;;26.47;12.73;;;0.80;99.90;;;;;;5013342;28;20457;-66
2022/12/15 12:29:27;;;;;;;30.07;13.27;;;0.70;99.90;;;;;;5013390;28;20424;-66
2022/12/15 12:31:52;;;;;;;30.00;13.83;;;0.60;99.90;;;;;;5013021;28;20430;-66
2022/12/15 12:34:56;;;;;;;32.53;13.40;;;0.60;99.90;;;;;;5011990;28;20421;-66
2022/12/15 12:37:27;;;;;;;26.07;13.67;;;0.80;99.90;;;;;;4997613;28;20183;-66
2022/12/15 12:39:57;;;;;;;38.40;15.63;;;0.80;99.90;;;;;;4991376;28;20425;-66
2022/12/15 12:42:37;;;;;;;58.37;16.03;;;0.80;99.90;;;;;;4995775;28;20418;-66
2022/12/15 12:45:03;;;;;;;39.40;14.30;;;0.90;99.90;;;;;;5000151;28;20862;-66
2022/12/15 12:47:34;;;;;;;38.37;15.20;;;0.90;99.90;;;;;;5006645;28;20432;-66
2022/12/15 12:50:12;;;;;;;32.37;13.27;;;0.90;99.90;;;;;;5012902;28;20512;-66
2022/12/15 12:52:45;;;;;;;24.73;12.30;;;0.90;99.90;;;;;;5008934;28;20473;-66
2022/12/15 12:55:11;;;;;;;27.83;13.70;;;0.90;99.90;;;;;;5012017;28;20436;-66
2022/12/15 12:57:41;;;;;;;30.03;13.77;;;0.80;99.90;;;;;;4993739;28;20427;-66
2022/12/15 13:00:06;;;;;;;31.10;13.40;;;0.80;99.90;;;;;;4990454;28;20187;-66
2022/12/15 13:02:38;;;;;;;26.63;11.83;;;0.80;99.90;;;;;;4993206;28;20427;-66
2022/12/15 13:05:27;;;;;;;35.53;13.90;;;0.80;99.90;;;;;;4991543;28;20209;-66
2022/12/15 13:08:05;;;;;;;23.33;12.20;;;0.60;99.90;;;;;;4990891;28;20454;-67
2022/12/15 13:10:37;;;;;;;26.87;13.00;;;0.50;99.90;;;;;;4991834;28;20702;-68
2022/12/15 13:13:30;;;;;;;36.50;14.80;;;0.50;99.90;;;;;;4992984;28;20446;-67
2022/12/15 13:16:08;;;;;;;29.17;12.50;;;0.30;99.90;;;;;;4992781;28;20720;-67
2022/12/15 13:19:03;;;;;;;25.70;12.70;;;0.10;99.90;;;;;;4993466;28;20934;-67
2022/12/15 13:21:44;;;;;;;22.80;11.73;;;0.10;99.90;;;;;;4990005;28;20422;-67
2022/12/15 13:24:40;;;;;;;32.10;13.40;;;0.10;99.90;;;;;;4991560;28;20745;-67
2022/12/15 13:27:08;;;;;;;34.33;14.40;;;0.20;99.90;;;;;;4996597;28;20427;-66
2022/12/15 13:29:52;;;;;;;32.67;13.40;;;0.20;99.90;;;;;;4993820;28;20422;-67
2022/12/15 13:32:38;;;;;;;30.23;14.70;;;0.20;99.90;;;;;;4990279;28;20423;-67
2022/12/15 13:35:13;;;;;;;45.97;12.60;;;0.20;99.90;;;;;;4992275;28;20669;-67
2022/12/15 13:38:03;;;;;;;27.00;13.00;;;0.20;99.90;;;;;;4993073;28;20525;-67
2022/12/15 13:40:51;;;;;;;37.37;16.07;;;0.10;99.90;;;;;;4993236;28;20546;-67
2022/12/15 13:43:25;;;;;;;30.57;13.40;;;0.10;99.90;;;;;;4997728;28;20441;-67
2022/12/15 13:45:55;;;;;;;36.47;15.63;;;0.00;99.90;;;;;;5005489;28;20868;-66
2022/12/15 13:48:34;;;;;;;32.13;15.53;;;0.00;99.90;;;;;;5011984;28;20433;-67
2022/12/15 13:51:42;;;;;;;33.20;15.03;;;-0.10;99.90;;;;;;5011367;28;20426;-67
2022/12/15 13:54:08;;;;;;;32.30;14.30;;;-0.10;99.90;;;;;;4910048;29;20453;-67
2022/12/15 13:56:59;;;;;;;26.77;13.27;;;-0.20;99.90;;;;;;4988319;28;20432;-67
2022/12/15 13:59:40;;;;;;;31.10;14.10;;;-0.20;99.90;;;;;;5001601;28;20422;-67
2022/12/15 14:02:47;;;;;;;30.93;15.53;;;-0.10;99.90;;;;;;4989293;28;20773;-67
2022/12/15 14:05:24;;;;;;;33.87;14.20;;;-0.10;99.90;;;;;;5000847;28;20481;-67
2022/12/15 14:07:53;;;;;;;23.57;11.43;;;0.00;99.90;;;;;;5011900;28;21206;-67
2022/12/15 14:10:27;;;;;;;24.47;12.80;;;0.00;99.90;;;;;;4997694;28;20419;-66
2022/12/15 14:12:56;;;;;;;42.40;14.70;;;-0.10;99.90;;;;;;5003188;28;20421;-67
2022/12/15 14:15:30;;;;;;;20.00;11.43;;;-0.10;99.90;;;;;;4996943;28;20795;-67
2022/12/15 14:17:59;;;;;;;30.20;13.70;;;-0.10;99.90;;;;;;5011856;28;20516;-67
2022/12/15 14:20:28;;;;;;;32.17;13.87;;;-0.20;99.90;;;;;;5008620;28;20430;-67
2022/12/15 14:22:53;;;;;;;34.27;14.63;;;-0.20;99.90;;;;;;4998611;28;20435;-67
2022/12/15 14:25:28;;;;;;;24.90;12.80;;;-0.10;99.90;;;;;;5006153;28;20465;-67
2022/12/15 14:27:54;;;;;;;34.77;13.00;;;-0.10;99.90;;;;;;5011568;28;20643;-67
2022/12/15 14:30:28;;;;;;;30.83;14.37;;;-0.10;99.90;;;;;;5011094;28;20418;-67
2022/12/15 14:33:00;;;;;;;26.13;12.03;;;-0.20;99.90;;;;;;5010182;28;20429;-67
2022/12/15 14:35:36;;;;;;;28.30;13.67;;;-0.20;99.90;;;;;;5011659;28;20501;-67
2022/12/15 14:38:06;;;;;;;22.97;12.57;;;-0.20;99.90;;;;;;5011457;28;20533;-67
2022/12/15 14:40:35;;;;;;;34.67;16.20;;;-0.20;99.90;;;;;;5010819;28;20417;-67
2022/12/15 14:43:01;;;;;;;32.20;14.27;;;-0.20;99.90;;;;;;5010738;28;20428;-67
2022/12/15 14:45:30;;;;;;;30.63;15.03;;;-0.20;99.90;;;;;;5007650;28;20519;-67
2022/12/15 14:48:04;;;;;;;35.50;13.40;;;-0.30;99.90;;;;;;5011487;28;20422;-67
2022/12/15 14:50:30;;;;;;;30.83;13.10;;;-0.30;99.90;;;;;;5007604;28;20497;-67
2022/12/15 14:53:04;;;;;;;31.20;14.03;;;-0.30;99.90;;;;;;4985323;28;20470;-67
2022/12/15 14:55:39;;;;;;;37.43;14.63;;;-0.30;99.90;;;;;;5000548;28;20254;-67
2022/12/15 14:58:29;;;;;;;29.03;13.60;;;-0.30;99.90;;;;;;4993892;28;20433;-67
2022/12/15 15:00:55;;;;;;;26.97;12.50;;;-0.30;99.90;;;;;;5002802;28;20787;-67
2022/12/15 15:03:35;;;;;;;27.43;13.00;;;-0.30;99.90;;;;;;5000104;28;20438;-67
2022/12/15 15:06:12;;;;;;;32.50;14.80;;;-0.30;99.90;;;;;;5009870;28;20552;-67
2022/12/15 15:08:48;;;;;;;31.57;12.43;;;-0.30;99.90;;;;;;5007981;28;20425;-67
2022/12/15 15:11:34;;;;;;;35.20;12.87;;;-0.30;99.90;;;;;;4998324;28;20457;-67
2022/12/15 15:14:06;;;;;;;29.57;14.00;;;-0.40;99.90;;;;;;5007308;28;20442;-67
2022/12/15 15:16:32;;;;;;;26.40;13.57;;;-0.40;99.90;;;;;;5009598;28;20525;-67
2022/12/15 15:19:01;;;;;;;33.57;13.57;;;-0.40;99.90;;;;;;5009663;28;20863;-67